sensor_id;sensor_type;location;lat;lon;timestamp;pressure;altitude;pressure_sealevel;temperature;humidity
62103;BME280;48077;48.104;11.702;2024-01-07T00:00:25;94653.50;;;-0.53;100.00
62103;BME280;48077;48.104;11.702;2024-01-07T00:02:52;94650.81;;;-0.59;100.00
62103;BME280;48077;48.104;11.702;2024-01-07T00:05:21;94649.50;;;-0.49;100.00
62103;BME280;48077;48.104;11.702;2024-01-07T00:07:49;94642.69;;;-0.65;100.00
62103;BME280;48077;48.104;11.702;2024-01-07T00:10:17;94650.16;;;-0.47;100.00
62103;BME280;48077;48.104;11.702;2024-01-07T00:12:45;94651.03;;;-0.39;100.00
62103;BME280;48077;48.104;11.702;2024-01-07T00:15:12;94647.78;;;-0.42;100.00
62103;BME280;48077;48.104;11.702;2024-01-07T00:17:40;94642.91;;;-0.45;100.00
62103;BME280;48077;48.104;11.702;2024-01-07T00:20:08;94641.84;;;-0.50;100.00
62103;BME280;48077;48.104;11.702;2024-01-07T00:22:38;94651.50;;;-0.51;100.00
62103;BME280;48077;48.104;11.702;2024-01-07T00:25:06;94651.97;;;-0.47;100.00
62103;BME280;48077;48.104;11.702;2024-01-07T00:27:34;94647.19;;;-0.58;100.00
62103;BME280;48077;48.104;11.702;2024-01-07T00:30:03;94645.63;;;-0.53;100.00
62103;BME280;48077;48.104;11.702;2024-01-07T00:32:30;94643.03;;;-0.53;100.00
62103;BME280;48077;48.104;11.702;2024-01-07T00:34:58;94644.84;;;-0.53;100.00
62103;BME280;48077;48.104;11.702;2024-01-07T00:37:26;94651.50;;;-0.51;100.00
62103;BME280;48077;48.104;11.702;2024-01-07T00:39:55;94644.84;;;-0.53;100.00
62103;BME280;48077;48.104;11.702;2024-01-07T00:42:23;94645.41;;;-0.36;100.00
62103;BME280;48077;48.104;11.702;2024-01-07T00:44:51;94642.09;;;-0.45;100.00
62103;BME280;48077;48.104;11.702;2024-01-07T00:47:18;94639.31;;;-0.44;100.00
62103;BME280;48077;48.104;11.702;2024-01-07T00:49:46;94641.66;;;-0.49;100.00
62103;BME280;48077;48.104;11.702;2024-01-07T00:52:14;94648.94;;;-0.44;100.00
62103;BME280;48077;48.104;11.702;2024-01-07T00:54:41;94642.91;;;-0.45;100.00
62103;BME280;48077;48.104;11.702;2024-01-07T00:57:11;94644.91;;;-0.47;100.00
62103;BME280;48077;48.104;11.702;2024-01-07T00:59:39;94643.72;;;-0.44;100.00
62103;BME280;48077;48.104;11.702;2024-01-07T01:07:44;94648.72;;;-0.28;100.00
62103;BME280;48077;48.104;11.702;2024-01-07T01:10:12;94648.66;;;-0.34;100.00
62103;BME280;48077;48.104;11.702;2024-01-07T01:12:41;94653.09;;;-0.35;100.00
62103;BME280;48077;48.104;11.702;2024-01-07T01:15:09;94651.91;;;-0.32;100.00
62103;BME280;48077;48.104;11.702;2024-01-07T01:17:37;94649.59;;;-0.42;100.00
62103;BME280;48077;48.104;11.702;2024-01-07T01:20:05;94644.09;;;-0.47;100.00
62103;BME280;48077;48.104;11.702;2024-01-07T01:22:33;94652.59;;;-0.45;100.00
62103;BME280;48077;48.104;11.702;2024-01-07T01:25:02;94654.13;;;-0.51;100.00
62103;BME280;48077;48.104;11.702;2024-01-07T01:27:30;94655.13;;;-0.52;100.00
62103;BME280;48077;48.104;11.702;2024-01-07T01:29:59;94650.44;;;-0.56;100.00
62103;BME280;48077;48.104;11.702;2024-01-07T01:32:26;94661.19;;;-0.51;100.00
62103;BME280;48077;48.104;11.702;2024-01-07T01:34:54;94652.31;;;-0.50;100.00
62103;BME280;48077;48.104;11.702;2024-01-07T01:37:22;94654.94;;;-0.50;100.00
62103;BME280;48077;48.104;11.702;2024-01-07T01:39:49;94647.63;;;-0.55;100.00
62103;BME280;48077;48.104;11.702;2024-01-07T01:42:18;94650.00;;;-0.60;100.00
62103;BME280;48077;48.104;11.702;2024-01-07T01:44:46;94652.06;;;-0.55;100.00
62103;BME280;48077;48.104;11.702;2024-01-07T01:47:14;94650.81;;;-0.59;100.00
62103;BME280;48077;48.104;11.702;2024-01-07T01:49:42;94651.25;;;-0.56;100.00
62103;BME280;48077;48.104;11.702;2024-01-07T01:52:10;94643.81;;;-0.37;100.00
62103;BME280;48077;48.104;11.702;2024-01-07T01:54:38;94653.22;;;-0.43;100.00
62103;BME280;48077;48.104;11.702;2024-01-07T01:57:07;94650.53;;;-0.50;100.00
62103;BME280;48077;48.104;11.702;2024-01-07T01:59:37;94644.44;;;-0.50;100.00
62103;BME280;48077;48.104;11.702;2024-01-07T02:02:05;94645.97;;;-0.41;100.00
62103;BME280;48077;48.104;11.702;2024-01-07T02:04:33;94650.16;;;-0.47;100.00
62103;BME280;48077;48.104;11.702;2024-01-07T02:07:01;94649.06;;;-0.52;100.00
62103;BME280;48077;48.104;11.702;2024-01-07T02:09:28;94644.97;;;-0.40;100.00
62103;BME280;48077;48.104;11.702;2024-01-07T02:12:03;94651.34;;;-0.49;100.00
62103;BME280;48077;48.104;11.702;2024-01-07T02:14:31;94645.34;;;-0.43;100.00
62103;BME280;48077;48.104;11.702;2024-01-07T02:17:00;94641.31;;;-0.46;100.00
62103;BME280;48077;48.104;11.702;2024-01-07T02:19:28;94639.81;;;-0.33;100.00
62103;BME280;48077;48.104;11.702;2024-01-07T02:21:55;94642.63;;;-0.35;100.00
62103;BME280;48077;48.104;11.702;2024-01-07T02:24:24;94641.94;;;-0.44;100.00
62103;BME280;48077;48.104;11.702;2024-01-07T02:26:52;94645.91;;;-0.48;100.00
62103;BME280;48077;48.104;11.702;2024-01-07T02:29:20;94641.94;;;-0.44;100.00
62103;BME280;48077;48.104;11.702;2024-01-07T02:31:48;94648.09;;;-0.51;100.00
62103;BME280;48077;48.104;11.702;2024-01-07T02:34:16;94647.19;;;-0.58;100.00
62103;BME280;48077;48.104;11.702;2024-01-07T02:36:43;94650.25;;;-0.55;100.00
62103;BME280;48077;48.104;11.702;2024-01-07T02:39:11;94645.91;;;-0.48;100.00
62103;BME280;48077;48.104;11.702;2024-01-07T02:41:40;94649.41;;;-0.41;100.00
62103;BME280;48077;48.104;11.702;2024-01-07T02:44:08;94650.03;;;-0.38;100.00
62103;BME280;48077;48.104;11.702;2024-01-07T02:46:38;94651.41;;;-0.43;100.00
62103;BME280;48077;48.104;11.702;2024-01-07T02:49:06;94642.47;;;-0.48;100.00
62103;BME280;48077;48.104;11.702;2024-01-07T02:51:34;94646.78;;;-0.41;100.00
62103;BME280;48077;48.104;11.702;2024-01-07T02:54:02;94644.66;;;-0.52;100.00
62103;BME280;48077;48.104;11.702;2024-01-07T02:56:29;94640.78;;;-0.56;100.00
62103;BME280;48077;48.104;11.702;2024-01-07T02:58:58;94634.81;;;-0.50;100.00
62103;BME280;48077;48.104;11.702;2024-01-07T03:01:26;94633.22;;;-0.44;100.00
62103;BME280;48077;48.104;11.702;2024-01-07T03:03:54;94636.69;;;-0.58;100.00
62103;BME280;48077;48.104;11.702;2024-01-07T03:06:21;94636.69;;;-0.58;100.00
62103;BME280;48077;48.104;11.702;2024-01-07T03:08:49;94637.53;;;-0.58;100.00
62103;BME280;48077;48.104;11.702;2024-01-07T03:11:17;94642.69;;;-0.65;100.00
62103;BME280;48077;48.104;11.702;2024-01-07T03:13:44;94633.91;;;-0.57;100.00
62103;BME280;48077;48.104;11.702;2024-01-07T03:16:20;94633.91;;;-0.57;100.00
62103;BME280;48077;48.104;11.702;2024-01-07T03:18:47;94622.63;;;-0.57;100.00
62103;BME280;48077;48.104;11.702;2024-01-07T03:21:19;94635.09;;;-0.59;100.00
62103;BME280;48077;48.104;11.702;2024-01-07T03:23:47;94639.94;;;-0.56;100.00
62103;BME280;48077;48.104;11.702;2024-01-07T03:26:16;94644.44;;;-0.50;100.00
62103;BME280;48077;48.104;11.702;2024-01-07T03:28:44;94645.19;;;-0.56;100.00
62103;BME280;48077;48.104;11.702;2024-01-07T03:31:12;94641.94;;;-0.58;100.00
62103;BME280;48077;48.104;11.702;2024-01-07T03:33:42;94631.97;;;-0.48;100.00
62103;BME280;48077;48.104;11.702;2024-01-07T03:36:11;94629.13;;;-0.53;100.00
62103;BME280;48077;48.104;11.702;2024-01-07T03:38:40;94649.41;;;-0.41;100.00
62103;BME280;48077;48.104;11.702;2024-01-07T03:41:08;94645.28;;;-0.50;100.00
62103;BME280;48077;48.104;11.702;2024-01-07T03:43:36;94648.88;;;-0.51;100.00
62103;BME280;48077;48.104;11.702;2024-01-07T03:46:04;94647.69;;;-0.48;100.00
62103;BME280;48077;48.104;11.702;2024-01-07T03:48:31;94654.94;;;-0.50;100.00
62103;BME280;48077;48.104;11.702;2024-01-07T03:51:00;94654.03;;;-0.43;100.00
62103;BME280;48077;48.104;11.702;2024-01-07T03:53:28;94640.91;;;-0.43;100.00
62103;BME280;48077;48.104;11.702;2024-01-07T03:55:56;94653.44;;;-0.38;100.00
62103;BME280;48077;48.104;11.702;2024-01-07T03:58:23;94654.13;;;-0.51;100.00
62103;BME280;48077;48.104;11.702;2024-01-07T04:00:51;94644.38;;;-0.57;100.00
62103;BME280;48077;48.104;11.702;2024-01-07T04:03:19;94651.56;;;-0.44;100.00
62103;BME280;48077;48.104;11.702;2024-01-07T04:05:46;94659.88;;;-0.41;100.00
62103;BME280;48077;48.104;11.702;2024-01-07T04:08:15;94654.66;;;-0.41;100.00
62103;BME280;48077;48.104;11.702;2024-01-07T04:10:43;94662.44;;;-0.47;100.00
62103;BME280;48077;48.104;11.702;2024-01-07T04:13:11;94662.97;;;-0.37;100.00
62103;BME280;48077;48.104;11.702;2024-01-07T04:15:39;94658.69;;;-0.38;100.00
62103;BME280;48077;48.104;11.702;2024-01-07T04:18:06;94656.56;;;-0.49;100.00
62103;BME280;48077;48.104;11.702;2024-01-07T04:20:34;94663.63;;;-0.50;100.00
62103;BME280;48077;48.104;11.702;2024-01-07T04:23:02;94660.91;;;-0.56;100.00
62103;BME280;48077;48.104;11.702;2024-01-07T04:25:31;94665.09;;;-0.62;100.00
62103;BME280;48077;48.104;11.702;2024-01-07T04:27:59;94669.38;;;-0.54;100.00
62103;BME280;48077;48.104;11.702;2024-01-07T04:30:27;94669.31;;;-0.61;100.00
62103;BME280;48077;48.104;11.702;2024-01-07T04:32:55;94669.16;;;-0.59;100.00
62103;BME280;48077;48.104;11.702;2024-01-07T04:35:23;94676.91;;;-0.51;100.00
62103;BME280;48077;48.104;11.702;2024-01-07T04:37:50;94674.63;;;-0.54;100.00
62103;BME280;48077;48.104;11.702;2024-01-07T04:40:18;94672.13;;;-0.48;100.00
62103;BME280;48077;48.104;11.702;2024-01-07T04:42:47;94676.50;;;-0.48;100.00
62103;BME280;48077;48.104;11.702;2024-01-07T04:45:15;94678.03;;;-0.39;100.00
62103;BME280;48077;48.104;11.702;2024-01-07T04:47:43;94684.72;;;-0.36;100.00
62103;BME280;48077;48.104;11.702;2024-01-07T04:50:11;94677.50;;;-0.34;100.00
62103;BME280;48077;48.104;11.702;2024-01-07T04:52:40;94685.72;;;-0.37;100.00
62103;BME280;48077;48.104;11.702;2024-01-07T04:55:08;94691.03;;;-0.31;100.00
62103;BME280;48077;48.104;11.702;2024-01-07T04:57:36;94686.34;;;-0.35;100.00
62103;BME280;48077;48.104;11.702;2024-01-07T05:00:06;94695.84;;;-0.34;100.00
62103;BME280;48077;48.104;11.702;2024-01-07T05:02:34;94690.34;;;-0.39;100.00
62103;BME280;48077;48.104;11.702;2024-01-07T05:05:02;94702.66;;;-0.18;100.00
62103;BME280;48077;48.104;11.702;2024-01-07T05:07:30;94703.06;;;-0.36;100.00
62103;BME280;48077;48.104;11.702;2024-01-07T05:09:58;94701.31;;;-0.29;100.00
62103;BME280;48077;48.104;11.702;2024-01-07T05:12:26;94703.59;;;-0.26;100.00
62103;BME280;48077;48.104;11.702;2024-01-07T05:14:54;94704.81;;;-0.44;100.00
62103;BME280;48077;48.104;11.702;2024-01-07T05:17:23;94707.59;;;-0.45;100.00
62103;BME280;48077;48.104;11.702;2024-01-07T05:19:50;94710.94;;;-0.36;100.00
62103;BME280;48077;48.104;11.702;2024-01-07T05:22:18;94702.16;;;-0.29;100.00
62103;BME280;48077;48.104;11.702;2024-01-07T05:24:46;94706.56;;;-0.29;100.00
62103;BME280;48077;48.104;11.702;2024-01-07T05:27:13;94702.72;;;-0.33;100.00
62103;BME280;48077;48.104;11.702;2024-01-07T05:29:44;94709.09;;;-0.36;100.00
62103;BME280;48077;48.104;11.702;2024-01-07T05:32:12;94715.09;;;-0.42;100.00
62103;BME280;48077;48.104;11.702;2024-01-07T05:34:41;94708.44;;;-0.23;100.00
62103;BME280;48077;48.104;11.702;2024-01-07T05:37:09;94711.38;;;-0.33;100.00
62103;BME280;48077;48.104;11.702;2024-01-07T05:39:36;94713.56;;;-0.51;100.00
62103;BME280;48077;48.104;11.702;2024-01-07T05:42:04;94711.84;;;-0.44;100.00
62103;BME280;48077;48.104;11.702;2024-01-07T05:44:32;94714.72;;;-0.39;100.00
62103;BME280;48077;48.104;11.702;2024-01-07T05:46:59;94711.22;;;-0.61;100.00
62103;BME280;48077;48.104;11.702;2024-01-07T05:49:27;94717.19;;;-0.37;100.00
62103;BME280;48077;48.104;11.702;2024-01-07T05:51:56;94724.75;;;-0.43;100.00
62103;BME280;48077;48.104;11.702;2024-01-07T05:54:24;94722.06;;;-0.49;100.00
62103;BME280;48077;48.104;11.702;2024-01-07T05:56:55;94733.31;;;-0.34;100.00
62103;BME280;48077;48.104;11.702;2024-01-07T05:59:22;94727.72;;;-0.31;100.00
62103;BME280;48077;48.104;11.702;2024-01-07T06:01:50;94710.13;;;-0.37;100.00
62103;BME280;48077;48.104;11.702;2024-01-07T06:04:18;94731.03;;;-0.22;100.00
62103;BME280;48077;48.104;11.702;2024-01-07T06:06:46;94734.34;;;-0.35;100.00
62103;BME280;48077;48.104;11.702;2024-01-07T06:09:20;94730.13;;;-0.29;100.00
62103;BME280;48077;48.104;11.702;2024-01-07T06:11:48;94729.34;;;-0.30;100.00
62103;BME280;48077;48.104;11.702;2024-01-07T06:14:15;94737.31;;;-0.38;100.00
62103;BME280;48077;48.104;11.702;2024-01-07T06:16:43;94737.50;;;-0.39;100.00
62103;BME280;48077;48.104;11.702;2024-01-07T06:19:11;94735.84;;;-0.26;100.00
62103;BME280;48077;48.104;11.702;2024-01-07T06:21:38;94737.13;;;-0.36;100.00
62103;BME280;48077;48.104;11.702;2024-01-07T06:24:07;94740.63;;;-0.29;100.00
62103;BME280;48077;48.104;11.702;2024-01-07T06:26:36;94741.47;;;-0.29;100.00
62103;BME280;48077;48.104;11.702;2024-01-07T06:29:04;94745.34;;;-0.25;100.00
62103;BME280;48077;48.104;11.702;2024-01-07T06:31:31;94748.69;;;-0.31;100.00
62103;BME280;48077;48.104;11.702;2024-01-07T06:34:00;94741.63;;;-0.30;100.00
62103;BME280;48077;48.104;11.702;2024-01-07T06:36:28;94753.41;;;-0.41;100.00
62103;BME280;48077;48.104;11.702;2024-01-07T06:38:56;94753.09;;;-0.31;100.00
62103;BME280;48077;48.104;11.702;2024-01-07T06:41:23;94749.75;;;-0.25;100.00
62103;BME280;48077;48.104;11.702;2024-01-07T06:43:52;94750.03;;;-0.20;100.00
62103;BME280;48077;48.104;11.702;2024-01-07T06:46:23;94759.81;;;-0.29;100.00
62103;BME280;48077;48.104;11.702;2024-01-07T06:48:51;94765.69;;;-0.27;100.00
62103;BME280;48077;48.104;11.702;2024-01-07T06:51:18;94768.56;;;-0.36;100.00
62103;BME280;48077;48.104;11.702;2024-01-07T06:53:46;94766.34;;;-0.39;100.00
62103;BME280;48077;48.104;11.702;2024-01-07T06:56:14;94768.13;;;-0.40;100.00
62103;BME280;48077;48.104;11.702;2024-01-07T06:58:42;94773.72;;;-0.28;100.00
62103;BME280;48077;48.104;11.702;2024-01-07T07:01:11;94772.56;;;-0.41;100.00
62103;BME280;48077;48.104;11.702;2024-01-07T07:03:40;94781.31;;;-0.33;100.00
62103;BME280;48077;48.104;11.702;2024-01-07T07:06:08;94778.34;;;-0.45;100.00
62103;BME280;48077;48.104;11.702;2024-01-07T07:08:36;94779.78;;;-0.43;100.00
62103;BME280;48077;48.104;11.702;2024-01-07T07:11:03;94787.78;;;-0.29;100.00
62103;BME280;48077;48.104;11.702;2024-01-07T07:13:31;94790.97;;;-0.34;100.00
62103;BME280;48077;48.104;11.702;2024-01-07T07:15:59;94786.84;;;-0.43;100.00
62103;BME280;48077;48.104;11.702;2024-01-07T07:18:28;94795.94;;;-0.24;100.00
62103;BME280;48077;48.104;11.702;2024-01-07T07:20:56;94792.69;;;-0.26;100.00
62103;BME280;48077;48.104;11.702;2024-01-07T07:23:23;94790.88;;;-0.26;100.00
62103;BME280;48077;48.104;11.702;2024-01-07T07:25:51;94795.13;;;-0.25;100.00
62103;BME280;48077;48.104;11.702;2024-01-07T07:28:19;94796.13;;;-0.26;100.00
62103;BME280;48077;48.104;11.702;2024-01-07T07:30:47;94790.88;;;-0.41;100.00
62103;BME280;48077;48.104;11.702;2024-01-07T07:33:18;94804.78;;;-0.40;100.00
62103;BME280;48077;48.104;11.702;2024-01-07T07:35:47;94805.19;;;-0.43;100.00
62103;BME280;48077;48.104;11.702;2024-01-07T07:38:15;94807.06;;;-0.22;100.00
62103;BME280;48077;48.104;11.702;2024-01-07T07:40:42;94809.59;;;-0.29;100.00
62103;BME280;48077;48.104;11.702;2024-01-07T07:43:11;94818.09;;;-0.27;100.00
62103;BME280;48077;48.104;11.702;2024-01-07T07:45:39;94815.25;;;-0.25;100.00
62103;BME280;48077;48.104;11.702;2024-01-07T07:48:07;94823.44;;;-0.35;100.00
62103;BME280;48077;48.104;11.702;2024-01-07T07:50:35;94820.09;;;-0.29;100.00
62103;BME280;48077;48.104;11.702;2024-01-07T07:53:04;94818.34;;;-0.22;100.00
62103;BME280;48077;48.104;11.702;2024-01-07T07:55:32;94823.41;;;-0.20;100.00
62103;BME280;48077;48.104;11.702;2024-01-07T07:58:00;94823.97;;;-0.39;100.00
62103;BME280;48077;48.104;11.702;2024-01-07T08:00:27;94831.13;;;-0.33;100.00
62103;BME280;48077;48.104;11.702;2024-01-07T08:02:55;94839.22;;;-0.28;100.00
62103;BME280;48077;48.104;11.702;2024-01-07T08:05:23;94839.47;;;-0.23;100.00
62103;BME280;48077;48.104;11.702;2024-01-07T08:07:51;94844.09;;;-0.40;100.00
62103;BME280;48077;48.104;11.702;2024-01-07T08:10:20;94841.84;;;-0.28;100.00
62103;BME280;48077;48.104;11.702;2024-01-07T08:12:49;94838.50;;;-0.37;100.00
62103;BME280;48077;48.104;11.702;2024-01-07T08:15:18;94849.25;;;-0.32;100.00
62103;BME280;48077;48.104;11.702;2024-01-07T08:17:45;94854.41;;;-0.24;100.00
62103;BME280;48077;48.104;11.702;2024-01-07T08:20:13;94851.69;;;-0.30;100.00
62103;BME280;48077;48.104;11.702;2024-01-07T08:22:41;94861.81;;;-0.27;100.00
62103;BME280;48077;48.104;11.702;2024-01-07T08:25:09;94858.22;;;-0.41;100.00
62103;BME280;48077;48.104;11.702;2024-01-07T08:27:40;94868.69;;;-0.26;100.00
62103;BME280;48077;48.104;11.702;2024-01-07T08:30:08;94869.59;;;-0.34;100.00
62103;BME280;48077;48.104;11.702;2024-01-07T08:32:36;94866.78;;;-0.32;100.00
62103;BME280;48077;48.104;11.702;2024-01-07T08:35:05;94866.00;;;-0.33;100.00
62103;BME280;48077;48.104;11.702;2024-01-07T08:37:32;94866.88;;;-0.26;100.00
62103;BME280;48077;48.104;11.702;2024-01-07T08:40:00;94868.69;;;-0.41;100.00
62103;BME280;48077;48.104;11.702;2024-01-07T08:42:28;94871.03;;;-0.31;100.00
62103;BME280;48077;48.104;11.702;2024-01-07T08:44:58;94878.63;;;-0.22;100.00
62103;BME280;48077;48.104;11.702;2024-01-07T08:47:27;94878.88;;;-0.31;100.00
62103;BME280;48077;48.104;11.702;2024-01-07T08:49:55;94879.16;;;-0.41;100.00
62103;BME280;48077;48.104;11.702;2024-01-07T08:52:23;94881.00;;;-0.27;100.00
62103;BME280;48077;48.104;11.702;2024-01-07T08:54:50;94882.78;;;-0.42;100.00
62103;BME280;48077;48.104;11.702;2024-01-07T08:57:18;94889.38;;;-0.31;100.00
62103;BME280;48077;48.104;11.702;2024-01-07T08:59:46;94889.28;;;-0.23;100.00
62103;BME280;48077;48.104;11.702;2024-01-07T09:02:15;94894.00;;;-0.33;100.00
62103;BME280;48077;48.104;11.702;2024-01-07T09:04:43;94901.88;;;-0.33;100.00
62103;BME280;48077;48.104;11.702;2024-01-07T09:07:11;94906.66;;;-0.37;100.00
62103;BME280;48077;48.104;11.702;2024-01-07T09:09:39;94903.66;;;-0.34;100.00
62103;BME280;48077;48.104;11.702;2024-01-07T09:12:07;94906.47;;;-0.35;100.00
62103;BME280;48077;48.104;11.702;2024-01-07T09:14:37;94914.78;;;-0.32;100.00
62103;BME280;48077;48.104;11.702;2024-01-07T09:17:05;94909.91;;;-0.20;100.00
62103;BME280;48077;48.104;11.702;2024-01-07T09:19:34;94913.06;;;-0.39;100.00
62103;BME280;48077;48.104;11.702;2024-01-07T09:22:01;94921.72;;;-0.54;100.00
62103;BME280;48077;48.104;11.702;2024-01-07T09:24:29;94916.13;;;-0.36;100.00
62103;BME280;48077;48.104;11.702;2024-01-07T09:26:57;94929.69;;;-0.32;100.00
62103;BME280;48077;48.104;11.702;2024-01-07T09:29:24;94927.03;;;-0.47;100.00
62103;BME280;48077;48.104;11.702;2024-01-07T09:31:53;94923.72;;;-0.41;100.00
62103;BME280;48077;48.104;11.702;2024-01-07T09:34:21;94919.00;;;-0.46;100.00
62103;BME280;48077;48.104;11.702;2024-01-07T09:36:50;94929.50;;;-0.46;100.00
62103;BME280;48077;48.104;11.702;2024-01-07T09:39:18;94923.25;;;-0.45;100.00
62103;BME280;48077;48.104;11.702;2024-01-07T09:41:47;94933.31;;;-0.33;100.00
62103;BME280;48077;48.104;11.702;2024-01-07T09:44:15;94924.13;;;-0.52;100.00
62103;BME280;48077;48.104;11.702;2024-01-07T09:46:44;94929.09;;;-0.57;100.00
62103;BME280;48077;48.104;11.702;2024-01-07T09:49:16;94931.56;;;-0.41;100.00
62103;BME280;48077;48.104;11.702;2024-01-07T09:51:44;94933.56;;;-0.43;100.00
62103;BME280;48077;48.104;11.702;2024-01-07T09:54:15;94930.56;;;-0.40;100.00
62103;BME280;48077;48.104;11.702;2024-01-07T09:56:50;94932.69;;;-0.35;100.00
62103;BME280;48077;48.104;11.702;2024-01-07T09:59:23;94929.78;;;-0.26;100.00
62103;BME280;48077;48.104;11.702;2024-01-07T10:01:51;94928.34;;;-0.28;100.00
62103;BME280;48077;48.104;11.702;2024-01-07T10:04:22;94926.16;;;-0.39;100.00
62103;BME280;48077;48.104;11.702;2024-01-07T10:06:51;94923.72;;;-0.41;100.00
62103;BME280;48077;48.104;11.702;2024-01-07T10:09:23;94930.56;;;-0.40;100.00
62103;BME280;48077;48.104;11.702;2024-01-07T10:11:52;94932.13;;;-0.31;100.00
62103;BME280;48077;48.104;11.702;2024-01-07T10:14:20;94931.19;;;-0.38;100.00
62103;BME280;48077;48.104;11.702;2024-01-07T10:16:48;94930.88;;;-0.35;100.00
62103;BME280;48077;48.104;11.702;2024-01-07T10:19:20;94921.28;;;-0.28;100.00
62103;BME280;48077;48.104;11.702;2024-01-07T10:21:59;94930.94;;;-0.43;100.00
62103;BME280;48077;48.104;11.702;2024-01-07T10:24:35;94920.81;;;-0.31;100.00
62103;BME280;48077;48.104;11.702;2024-01-07T10:27:05;94925.16;;;-0.24;100.00
62103;BME280;48077;48.104;11.702;2024-01-07T10:29:34;94928.25;;;-0.35;100.00
62103;BME280;48077;48.104;11.702;2024-01-07T10:32:02;94930.06;;;-0.35;100.00
62103;BME280;48077;48.104;11.702;2024-01-07T10:34:32;94932.75;;;-0.44;100.00
62103;BME280;48077;48.104;11.702;2024-01-07T10:37:03;94939.25;;;-0.39;100.00
62103;BME280;48077;48.104;11.702;2024-01-07T10:39:33;94938.34;;;-0.47;100.00
62103;BME280;48077;48.104;11.702;2024-01-07T10:42:01;94938.56;;;-0.33;100.00
62103;BME280;48077;48.104;11.702;2024-01-07T10:44:30;94938.56;;;-0.33;100.00
62103;BME280;48077;48.104;11.702;2024-01-07T10:46:59;94932.84;;;-0.37;100.00
62103;BME280;48077;48.104;11.702;2024-01-07T10:49:28;94946.59;;;-0.35;100.00
62103;BME280;48077;48.104;11.702;2024-01-07T10:52:02;94943.50;;;-0.24;100.00
62103;BME280;48077;48.104;11.702;2024-01-07T10:54:33;94944.69;;;-0.26;100.00
62103;BME280;48077;48.104;11.702;2024-01-07T10:57:07;94934.03;;;-0.25;100.00
62103;BME280;48077;48.104;11.702;2024-01-07T10:59:38;94948.59;;;-0.22;100.00
62103;BME280;48077;48.104;11.702;2024-01-07T11:02:07;94924.91;;;-0.29;100.00
62103;BME280;48077;48.104;11.702;2024-01-07T11:04:42;94937.00;;;-0.13;100.00
62103;BME280;48077;48.104;11.702;2024-01-07T11:07:18;94932.47;;;-0.34;100.00
62103;BME280;48077;48.104;11.702;2024-01-07T11:09:55;94920.56;;;-0.36;100.00
62103;BME280;48077;48.104;11.702;2024-01-07T11:12:27;94946.44;;;-0.18;100.00
62103;BME280;48077;48.104;11.702;2024-01-07T11:14:55;94943.88;;;-0.27;100.00
62103;BME280;48077;48.104;11.702;2024-01-07T11:17:42;94941.06;;;-0.25;100.00
62103;BME280;48077;48.104;11.702;2024-01-07T11:20:17;94934.94;;;-0.32;100.00
62103;BME280;48077;48.104;11.702;2024-01-07T11:22:46;94943.97;;;-0.35;100.00
62103;BME280;48077;48.104;11.702;2024-01-07T11:25:32;94950.25;;;-0.44;100.00
62103;BME280;48077;48.104;11.702;2024-01-07T11:28:01;94943.88;;;-0.42;100.00
62103;BME280;48077;48.104;11.702;2024-01-07T11:30:31;94936.50;;;-0.61;100.00
62103;BME280;48077;48.104;11.702;2024-01-07T11:33:05;94944.91;;;-0.51;100.00
62103;BME280;48077;48.104;11.702;2024-01-07T11:35:55;94950.97;;;-0.50;100.00
62103;BME280;48077;48.104;11.702;2024-01-07T11:38:23;94950.53;;;-0.54;100.00
62103;BME280;48077;48.104;11.702;2024-01-07T11:40:52;94943.09;;;-0.50;100.00
62103;BME280;48077;48.104;11.702;2024-01-07T11:43:20;94942.19;;;-0.57;100.00
62103;BME280;48077;48.104;11.702;2024-01-07T11:45:49;94948.97;;;-0.48;100.00
62103;BME280;48077;48.104;11.702;2024-01-07T11:48:18;94945.47;;;-0.41;100.00
62103;BME280;48077;48.104;11.702;2024-01-07T11:50:46;94950.28;;;-0.67;100.00
62103;BME280;48077;48.104;11.702;2024-01-07T11:53:16;94957.19;;;-0.66;100.00
62103;BME280;48077;48.104;11.702;2024-01-07T11:55:44;94952.69;;;-0.57;100.00
62103;BME280;48077;48.104;11.702;2024-01-07T11:58:13;94946.41;;;-0.71;100.00
62103;BME280;48077;48.104;11.702;2024-01-07T12:00:41;94955.56;;;-0.52;100.00
62103;BME280;48077;48.104;11.702;2024-01-07T12:03:09;94953.41;;;-0.49;100.00
62103;BME280;48077;48.104;11.702;2024-01-07T12:05:36;94960.06;;;-0.61;100.00
62103;BME280;48077;48.104;11.702;2024-01-07T12:08:09;94958.72;;;-0.57;100.00
62103;BME280;48077;48.104;11.702;2024-01-07T12:10:37;94962.63;;;-0.53;100.00
62103;BME280;48077;48.104;11.702;2024-01-07T12:13:05;94963.44;;;-0.52;100.00
62103;BME280;48077;48.104;11.702;2024-01-07T12:15:37;94967.44;;;-0.42;100.00
62103;BME280;48077;48.104;11.702;2024-01-07T12:18:05;94961.75;;;-0.45;100.00
62103;BME280;48077;48.104;11.702;2024-01-07T12:20:33;94970.31;;;-0.51;100.00
62103;BME280;48077;48.104;11.702;2024-01-07T12:23:07;94966.97;;;-0.45;100.00
62103;BME280;48077;48.104;11.702;2024-01-07T12:25:35;94968.72;;;-0.37;100.00
62103;BME280;48077;48.104;11.702;2024-01-07T12:28:06;94968.44;;;-0.28;100.00
62103;BME280;48077;48.104;11.702;2024-01-07T12:30:37;94970.72;;;-0.39;100.00
62103;BME280;48077;48.104;11.702;2024-01-07T12:33:05;94973.13;;;-0.38;100.00
62103;BME280;48077;48.104;11.702;2024-01-07T12:35:34;94976.66;;;-0.46;100.00
62103;BME280;48077;48.104;11.702;2024-01-07T12:38:02;94977.81;;;-0.48;100.00
62103;BME280;48077;48.104;11.702;2024-01-07T12:40:29;94978.50;;;-0.54;100.00
62103;BME280;48077;48.104;11.702;2024-01-07T12:42:57;94978.28;;;-0.68;100.00
62103;BME280;48077;48.104;11.702;2024-01-07T12:45:25;94978.84;;;-0.72;100.00
62103;BME280;48077;48.104;11.702;2024-01-07T12:47:54;94983.97;;;-0.79;100.00
62103;BME280;48077;48.104;11.702;2024-01-07T12:50:25;94981.91;;;-0.69;100.00
62103;BME280;48077;48.104;11.702;2024-01-07T12:52:54;94989.78;;;-0.69;100.00